Boulder City, Nevada Weather observations

Data are for observation ending at time listed.
 Day   Time    Ave.   Ave.  Ave.  Vector   Max.   Stn.    Total    Solar   Ave.  
  of    of     Air    Rel.  Wind   Wind    Wind   Baro.  Precip.   Rad.    Soil  
Year   Day     Temp.  Hum.  Speed  Dir.    Gust   Pres.                    Temp. 
2026   (PST)    F      %     mph   deg.    mph     mb.     in.     W/m2     F   
------------------------------------------------------------------------------
 121   14:00   82.5     9    4.5    45     11.3   930.4    0.00     804    84.2
 121   14:10   82.5     9    6.2    41     15.1   930.4    0.00     418    84.4
 121   14:20   81.2    10    5.0    52     12.3   930.3    0.00     310    84.6
 121   14:30   81.4    10    4.5    28     10.4   930.1    0.00     277    84.9
 121   14:40   81.7    10    5.1    10     11.4   929.9    0.00     524    85.0
 121   14:50   82.2    10    5.6    21     11.5   929.8    0.00     508    85.3
 121   15:00   83.0     9    5.7     9     14.3   929.7    0.00     643    85.5
 121   15:10   82.6     9    5.3    18     14.0   929.7    0.00     255    85.7
 121   15:20   82.5     9    6.2    18     13.4   929.6    0.00     615    85.8
 121   15:30   82.9     9    7.0    12     15.1   929.6    0.00     578    85.9
 121   15:40   83.6     9    5.4    23     12.6   929.7    0.00     507    86.1
 121   15:50   83.7     9    4.3    36      9.8   929.7    0.00     467    86.1
 121   16:00   83.4     9    4.8    29     12.9   929.7    0.00     424    86.2
 121   16:10   83.1     9    5.4    24     10.9   929.6    0.00     393    86.2
 121   16:20   83.5     9    4.6    30     11.2   929.5    0.00     355    86.3
 121   16:30   82.9     9    3.7    33      9.2   929.5    0.00     320    86.3
 121   16:40   82.7     9    3.5    24      9.3   929.4    0.00     287    86.3
 121   16:50   82.7     9    4.1     3      8.6   929.4    0.00     255    86.4
 121   17:00   82.5     9    2.4    18      5.2   929.3    0.00     223    86.3
 121   17:10   82.5     9    2.7   358      5.9   929.2    0.00     191    86.3
 121   17:20   81.3     9    2.4    21      5.6   929.1    0.00     160    86.3
 121   17:30   80.7     9    2.5    22      6.9   929.0    0.00     133    86.3
 121   17:40   80.5     9    3.0    28      6.6   928.9    0.00     106    86.2
 121   17:50   80.1     9    2.8    24      6.5   928.8    0.00      35    86.2
 121   18:00   79.6     9    2.0     0      3.7   928.9    0.00      21    86.1
 121   18:10   78.9     9    1.7     4      3.9   928.9    0.00      16    86.1
 121   18:20   78.6     9    2.2    13      4.5   928.8    0.00      10    86.0
 121   18:30   78.2     9    1.9     5      3.4   928.8    0.00       4    86.0
 121   18:40   77.5     9    1.6   357      3.4   928.8    0.00       1    85.9
 121   18:50   77.1     9    2.0   341      2.9   928.9    0.00       0    85.8
 121   19:00   76.2    10    1.7   334      2.8   928.9    0.00       0    85.7
 121   19:10   75.5    10    1.6   320      3.0   929.0    0.00       0    85.7
 121   19:20   74.6    10    0.7   282      1.5   929.0    0.00       0    85.6
 121   19:30   74.1    10    1.0   230      1.8   929.1    0.00       0    85.5
 121   19:40   74.3    10    0.5   270      1.5   929.1    0.00       0    85.4
 121   19:50   73.5    10    0.2    77      1.3   929.2    0.00       0    85.2
 121   20:00   73.2    10    1.0   288      2.2   929.3    0.00       0    85.1
 121   20:10   72.3    11    1.7   235      2.6   929.4    0.00       0    85.0
 121   20:20   71.8    11    1.5   218      2.3   929.5    0.00       0    84.9
 121   20:30   71.7    11    1.3   214      2.0   929.6    0.00       0    84.8
 121   20:40   71.7    11    1.6   209      2.4   929.7    0.00       0    84.6
 121   20:50   71.8    11    0.3   275      2.1   929.7    0.00       0    84.5
 121   21:00   70.6    11    0.5    16      3.1   929.8    0.00       0    84.3
 121   21:10   71.2    11    1.3    15      4.4   929.9    0.00       0    84.2
 121   21:20   72.4    11    1.4    19      3.7   930.0    0.00       0    84.0
 121   21:30   72.0    12    1.4   356      2.3   930.0    0.00       0    83.9
 121   21:40   71.9    12    2.1   359      4.2   930.1    0.00       0    83.7
 121   21:50   72.9    11    3.2     2      7.9   930.1    0.00       0    83.6
 121   22:00   73.9    10    3.5     6      7.0   930.2    0.00       0    83.4
 121   22:10   73.6    10    3.4    10      6.8   930.4    0.00       0    83.3
 121   22:20   73.6    10    3.9     7      8.8   930.6    0.00       0    83.1
 121   22:30   73.8    10    3.7   358      8.5   930.7    0.00       0    82.9
 121   22:40   73.7    10    4.4   358      7.5   930.8    0.00       0    82.8
 121   22:50   73.7    10    4.2     2     10.7   930.8    0.00       0    82.6
 121   23:00   73.6    10    5.0     2     10.2   930.9    0.00       0    82.5
 121   23:10   73.3    10    5.3     4      8.7   930.9    0.00       0    82.3
 121   23:20   73.4    10    5.6     3     10.7   931.0    0.00       0    82.1
 121   23:30   73.4    10    4.5   358     12.3   931.1    0.00       0    82.0
 121   23:40   73.2    10    4.8     5      9.0   931.2    0.00       0    81.9
 121   23:50   72.9    10    4.7     6     10.7   931.2    0.00       0    81.7
 122    0:00   72.6    10    4.8     5      9.1   931.2    0.00       0    81.6
 122    0:10   72.6    10    5.5     9      9.6   931.2    0.00       0    81.4
 122    0:20   72.1    10    3.9     8      8.7   931.2    0.00       0    81.3
 122    0:30   71.4    10    4.0    13      7.5   931.1    0.00       0    81.2
 122    0:40   71.0    10    3.6     8      6.7   931.0    0.00       0    81.1
 122    0:50   70.2    11    3.1     1      5.1   930.9    0.00       0    81.0
 122    1:00   69.5    11    3.4   349      5.3   930.8    0.00       0    80.8
 122    1:10   69.4    11    3.3   358      6.7   930.7    0.00       0    80.7
 122    1:20   70.6    10    4.0   353      7.7   930.7    0.00       0    80.6
 122    1:30   70.6    10    4.7   346      7.5   930.7    0.00       0    80.5
 122    1:40   70.2    10    4.2   346      6.7   930.7    0.00       0    80.4
 122    1:50   69.8    11    3.9   349      6.3   930.6    0.00       0    80.2
 122    2:00   69.5    11    3.2   349      5.6   930.6    0.00       0    80.1
 122    2:10   69.3    11    3.1   354      5.4   930.6    0.00       0    80.0
 122    2:20   69.4    11    3.8     2      6.4   930.5    0.00       0    79.9
 122    2:30   69.6    11    3.7   359      6.2   930.5    0.00       0    79.8
 122    2:40   69.8    11    3.7   354      6.3   930.6    0.00       0    79.6
 122    2:50   70.1    11    4.3   350      8.6   930.5    0.00       0    79.5
 122    3:00   70.2    11    3.7   357      7.5   930.6    0.00       0    79.4
 122    3:10   70.1    11    4.1     2      8.3   930.6    0.00       0    79.3
 122    3:20   70.1    11    3.7     2      6.6   930.6    0.00       0    79.2
 122    3:30   69.9    11    3.7   355      8.5   930.7    0.00       0    79.1
 122    3:40   69.3    12    2.9   359      5.6   930.7    0.00       0    79.0
 122    3:50   69.1    12    3.2     0      6.4   930.6    0.00       0    78.9
 122    4:00   69.0    12    3.1     0      6.4   930.6    0.00       0    78.7
 122    4:10   69.3    12    3.6   358      7.2   930.7    0.00       0    78.6
 122    4:20   69.3    12    4.3   353      7.2   930.8    0.00       0    78.5
 122    4:30   69.2    12    4.2   346      7.6   930.8    0.00       0    78.4
 122    4:40   68.9    12    3.2   356      6.8   930.9    0.00       2    78.3
 122    4:50   68.5    12    3.2   358      7.5   931.1    0.00       6    78.2
 122    5:00   68.3    12    1.9     5      5.2   931.1    0.00      13    78.1
 122    5:10   67.3    13    1.2    48      2.7   931.2    0.00      27    78.0
 122    5:20   66.6    13    0.5    34      2.2   931.3    0.00      32    77.9
 122    5:30   67.5    13    0.3    39      0.9   931.4    0.00      64    77.8
 122    5:40   69.0    13    0.5    15      1.5   931.5    0.00     132    77.7
 122    5:50   71.6    13    1.5    11      3.7   931.7    0.00     179    77.6
 122    6:00   71.7    13    1.9    17      4.1   931.9    0.00     179    77.5
 122    6:10   71.3    12    3.5     2      6.9   932.0    0.00     217    77.3
 122    6:20   72.0    12    3.9     5      7.4   932.2    0.00     246    77.2
 122    6:30   72.2    12    3.6    11      6.1   932.4    0.00     233    77.2
 122    6:40   72.7    11    3.9     5      7.4   932.5    0.00     297    77.1
 122    6:50   73.0    11    3.8    16      7.4   932.6    0.00     302    76.9
 122    7:00   73.4    11    4.3     3     10.4   932.7    0.00     327    76.9
 122    7:10   73.4    11    5.0     1      9.3   932.8    0.00     406    76.8
 122    7:20   74.0    11    5.5     1      9.1   933.0    0.00     463    76.7
 122    7:30   74.2    11    5.4     5      9.3   933.1    0.00     471    76.7
 122    7:40   74.5    11    5.8     2     12.0   933.2    0.00     565    76.6
 122    7:50   75.0    11    5.2     4      9.9   933.3    0.00     583    76.6
 122    8:00   75.6    10    5.0     4     11.3   933.4    0.00     623    76.6
 122    8:10   75.9    10    5.5    16     10.6   933.5    0.00     664    76.6
 122    8:20   76.0    10    5.4    10     11.8   933.6    0.00     628    76.7
 122    8:30   76.0    10    6.1    12     11.8   933.6    0.00     667    76.7
 122    8:40   76.3    10    5.8   360     11.0   933.6    0.00     743    76.7
 122    8:50   76.7    10    5.6    16     10.8   933.6    0.00     763    76.8
 122    9:00   77.3    10    4.8    12     10.7   933.6    0.00     769    76.9
 122    9:10   78.5    10    3.9    20      8.1   933.7    0.00     809    77.0
 122    9:20   78.5    10    4.2    14     10.7   933.7    0.00     649    77.1
 122    9:30   79.3     9    4.4    15      9.8   933.7    0.00     604    77.2
 122    9:40   79.0     9    4.3    33      9.2   933.7    0.00     579    77.4
 122    9:50   79.7     9    4.1    16      8.6   933.7    0.00     348    77.6
 122   10:00   79.6     9    4.0    22      8.3   933.7    0.00     750    77.8
 122   10:10   80.0     9    4.1    16      8.0   933.7    0.00     896    78.0
 122   10:20   80.6     9    3.7    25      9.3   933.6    0.00     808    78.2
 122   10:30   80.3     9    3.0    67      8.7   933.6    0.00     637    78.4
 122   10:40   79.9     9    4.2     1      9.2   933.4    0.00     743    78.7
 122   10:50   80.3     9    3.6    14      9.1   933.2    0.00     771    79.0
 122   11:00   80.5     8    4.3   351      7.8   933.0    0.00     937    79.3
 122   11:10   81.3     8    3.5    53      8.3   932.9    0.00     690    79.6
 122   11:20   82.3     6    4.4   102      9.3   932.9    0.00     902    79.9
 122   11:30   82.3     7    2.6    37      7.0   932.6    0.00     964    80.2
 122   11:40   83.1     7    4.6   356     10.4   932.5    0.00     976    80.5
 122   11:50   83.1     7    4.2    12      8.8   932.4    0.00     967    80.8
 122   12:00   83.0     7    4.0    23     12.1   932.3    0.00     965    81.2
 122   12:10   83.4     7    5.3    28     14.3   932.1    0.00     948    81.5
 122   12:20   81.8     7    3.1    42      6.7   932.0    0.00     940    81.8
 122   12:30   83.2     7    3.4    57      7.7   931.7    0.00     948    82.1
 122   12:40   84.0     7    4.4     7     11.9   931.5    0.00     935    82.5
 122   12:50   83.3     7    4.2     6     11.2   931.5    0.00     822    82.8
 122   13:00   83.7     7    4.5    58     11.9   931.3    0.00     792    83.2
 122   13:10   83.8     7    3.1    30      8.0   931.3    0.00     854    83.5
 122   13:20   84.3     7    3.9     8      8.7   931.2    0.00     874    83.8
 122   13:30   83.6     7    5.2   348      7.9   931.0    0.00     862    84.2
 122   13:40   84.2     7    4.0   353      8.6   930.9    0.00     823    84.5
 122   13:50   84.8     6    2.9   333      7.4   930.8    0.00     781    84.8

Return to Boulder City, Nevada graphs page.


Western Regional Climate Center,wrcc@dri.edu